createdAt,value
2018-06-03T00:00:35.958Z,20.69
2018-06-03T00:01:35.941Z,20.67
2018-06-03T00:02:35.927Z,20.77
2018-06-03T00:03:35.916Z,20.76
2018-06-03T00:04:35.907Z,20.66
2018-06-03T00:05:35.892Z,20.69
2018-06-03T00:06:35.882Z,20.69
2018-06-03T00:07:35.868Z,20.70
2018-06-03T00:08:35.857Z,20.72
2018-06-03T00:09:35.842Z,20.66
2018-06-03T00:10:35.830Z,20.54
2018-06-03T00:11:35.819Z,20.58
2018-06-03T00:12:35.808Z,20.64
2018-06-03T00:13:35.792Z,20.61
2018-06-03T00:14:35.781Z,20.66
2018-06-03T00:15:35.769Z,20.61
2018-06-03T00:16:35.758Z,20.62
2018-06-03T00:17:35.746Z,20.59
2018-06-03T00:18:35.733Z,20.64
2018-06-03T00:19:35.720Z,20.62
2018-06-03T00:20:35.713Z,20.61
2018-06-03T00:21:35.696Z,20.59
2018-06-03T00:22:35.688Z,20.59
2018-06-03T00:23:35.672Z,20.64
2018-06-03T00:24:35.660Z,20.62
2018-06-03T00:25:35.647Z,20.61
2018-06-03T00:26:35.637Z,20.66
2018-06-03T00:27:35.622Z,20.61
2018-06-03T00:28:35.612Z,20.61
2018-06-03T00:29:35.596Z,20.59
2018-06-03T00:30:35.587Z,20.58
2018-06-03T00:31:35.572Z,20.64
2018-06-03T00:32:35.567Z,20.58
2018-06-03T00:33:35.549Z,20.59
2018-06-03T00:34:35.537Z,20.67
2018-06-03T00:35:35.533Z,20.57
2018-06-03T00:36:35.518Z,20.61
2018-06-03T00:37:35.500Z,20.66
2018-06-03T00:38:35.486Z,20.59
2018-06-03T00:39:35.477Z,20.62
2018-06-03T00:40:35.464Z,20.61
2018-06-03T00:41:35.451Z,20.66
2018-06-03T00:42:35.438Z,20.61
2018-06-03T00:43:35.429Z,20.64
2018-06-03T00:44:35.413Z,20.62
2018-06-03T00:45:35.402Z,20.62
2018-06-03T00:46:35.390Z,20.58
2018-06-03T00:47:35.378Z,20.62
2018-06-03T00:48:35.366Z,20.47
2018-06-03T00:49:35.351Z,20.48
2018-06-03T00:50:35.340Z,20.55
2018-06-03T00:51:35.331Z,20.59
2018-06-03T00:52:35.319Z,20.51
2018-06-03T00:53:35.302Z,20.52
2018-06-03T00:54:35.302Z,20.66
2018-06-03T00:55:35.280Z,20.58
2018-06-03T00:56:35.268Z,20.66
2018-06-03T00:57:35.254Z,20.58
2018-06-03T00:58:35.245Z,20.61
2018-06-03T00:59:35.232Z,20.64
2018-06-03T01:00:35.217Z,20.55
2018-06-03T01:01:35.205Z,20.52
2018-06-03T01:02:35.194Z,20.54
2018-06-03T01:03:35.185Z,20.62
2018-06-03T01:04:35.169Z,20.67
2018-06-03T01:05:35.157Z,20.66
2018-06-03T01:06:35.146Z,20.58
2018-06-03T01:07:35.133Z,20.62
2018-06-03T01:08:35.120Z,20.62
2018-06-03T01:09:35.107Z,20.64
2018-06-03T01:10:35.094Z,20.61
2018-06-03T01:11:35.083Z,20.54
2018-06-03T01:12:35.072Z,20.55
2018-06-03T01:13:35.057Z,20.61
2018-06-03T01:14:35.045Z,20.55
2018-06-03T01:15:35.032Z,20.57
2018-06-03T01:16:35.019Z,20.50
2018-06-03T01:17:35.011Z,20.50
2018-06-03T01:18:34.997Z,20.61
2018-06-03T01:19:34.983Z,20.58
2018-06-03T01:20:34.972Z,20.66
2018-06-03T01:21:34.958Z,20.59
2018-06-03T01:22:34.948Z,20.51
2018-06-03T01:23:34.937Z,20.67
2018-06-03T01:24:34.922Z,20.61
2018-06-03T01:25:34.912Z,20.54
2018-06-03T01:26:34.897Z,20.57
2018-06-03T01:27:34.890Z,20.59
2018-06-03T01:28:34.874Z,20.57
2018-06-03T01:29:34.860Z,20.62
2018-06-03T01:30:34.846Z,20.67
2018-06-03T01:31:34.835Z,20.64
2018-06-03T01:32:34.823Z,20.66
2018-06-03T01:33:34.814Z,20.67
2018-06-03T01:34:34.798Z,20.67
2018-06-03T01:35:34.787Z,20.62
2018-06-03T01:36:34.776Z,20.61
2018-06-03T01:37:34.765Z,20.59
2018-06-03T01:38:34.748Z,20.57
2018-06-03T01:39:34.738Z,20.62
2018-06-03T01:40:34.725Z,20.58
2018-06-03T01:41:34.714Z,20.61
2018-06-03T01:42:34.702Z,20.67
2018-06-03T01:43:34.688Z,20.59
2018-06-03T01:44:34.677Z,20.67
2018-06-03T01:45:34.662Z,20.59
2018-06-03T01:46:34.652Z,20.66
2018-06-03T01:47:34.640Z,20.58
2018-06-03T01:48:34.627Z,20.66
2018-06-03T01:49:34.613Z,20.57
2018-06-03T01:50:34.602Z,20.59
2018-06-03T01:51:34.589Z,20.64
2018-06-03T01:52:34.579Z,20.57
2018-06-03T01:53:34.565Z,20.67
2018-06-03T01:54:34.553Z,20.57
2018-06-03T01:55:34.541Z,20.69
2018-06-03T01:56:34.528Z,20.66
2018-06-03T01:57:34.518Z,20.66
2018-06-03T01:58:34.503Z,20.70
2018-06-03T01:59:34.493Z,20.67
2018-06-03T02:00:34.479Z,20.67
2018-06-03T02:01:34.465Z,20.55
2018-06-03T02:02:34.454Z,20.58
2018-06-03T02:03:34.441Z,20.64
2018-06-03T02:04:34.429Z,20.58
2018-06-03T02:05:34.416Z,20.62
2018-06-03T02:06:34.411Z,20.59
2018-06-03T02:07:34.391Z,20.64
2018-06-03T02:08:34.380Z,20.70
2018-06-03T02:09:34.366Z,20.67
2018-06-03T02:10:34.355Z,20.55
2018-06-03T02:11:34.344Z,20.59
2018-06-03T02:12:34.334Z,20.67
2018-06-03T02:13:34.321Z,20.64
2018-06-03T02:14:34.314Z,20.61
2018-06-03T02:15:34.300Z,20.59
2018-06-03T02:16:34.283Z,20.64
2018-06-03T02:17:34.270Z,20.70
2018-06-03T02:18:34.260Z,20.66
2018-06-03T02:19:34.246Z,20.69
2018-06-03T02:20:34.233Z,20.69
2018-06-03T02:21:34.220Z,20.72
2018-06-03T02:22:34.209Z,20.64
2018-06-03T02:23:34.196Z,20.67
2018-06-03T02:24:34.183Z,20.66
2018-06-03T02:25:34.175Z,20.58
2018-06-03T02:26:34.161Z,20.64
2018-06-03T02:27:34.151Z,20.58
2018-06-03T02:28:34.136Z,20.57
2018-06-03T02:29:34.123Z,20.64
2018-06-03T02:30:34.110Z,20.58
2018-06-03T02:31:34.099Z,20.66
2018-06-03T02:32:34.095Z,20.66
2018-06-03T02:33:34.078Z,20.57
2018-06-03T02:34:34.063Z,20.67
2018-06-03T02:35:34.049Z,20.58
2018-06-03T02:36:34.038Z,20.70
2018-06-03T02:37:34.022Z,20.70
2018-06-03T02:38:34.013Z,20.69
2018-06-03T02:39:34.003Z,20.67
2018-06-03T02:40:33.989Z,20.70
2018-06-03T02:41:33.976Z,20.62
2018-06-03T02:42:33.965Z,20.69
2018-06-03T02:43:33.954Z,20.66
2018-06-03T02:44:33.943Z,20.67
2018-06-03T02:45:33.927Z,20.67
2018-06-03T02:46:33.918Z,20.70
2018-06-03T02:47:33.902Z,20.67
2018-06-03T02:48:33.889Z,20.69
2018-06-03T02:49:33.876Z,20.67
2018-06-03T02:50:33.865Z,20.69
2018-06-03T02:51:33.852Z,20.69
2018-06-03T02:52:33.841Z,20.67
2018-06-03T02:53:33.831Z,20.70
2018-06-03T02:54:33.815Z,20.70
2018-06-03T02:55:33.804Z,20.64
2018-06-03T02:56:33.791Z,20.69
2018-06-03T02:57:33.780Z,20.69
2018-06-03T02:58:33.771Z,20.66
2018-06-03T02:59:33.753Z,20.61
2018-06-03T03:00:33.745Z,20.67
2018-06-03T03:01:33.745Z,20.69
2018-06-03T03:02:33.718Z,20.67
2018-06-03T03:03:33.707Z,20.64
2018-06-03T03:04:33.693Z,20.74
2018-06-03T03:05:33.681Z,20.70
2018-06-03T03:06:33.669Z,20.67
2018-06-03T03:07:33.658Z,20.72
2018-06-03T03:08:33.645Z,20.67
2018-06-03T03:09:33.634Z,20.74
2018-06-03T03:10:33.618Z,20.74
2018-06-03T03:11:33.608Z,20.74
2018-06-03T03:12:33.601Z,20.67
2018-06-03T03:13:33.585Z,20.70
2018-06-03T03:14:33.572Z,20.69
2018-06-03T03:15:33.563Z,20.70
2018-06-03T03:16:33.546Z,20.67
2018-06-03T03:17:33.536Z,20.67
2018-06-03T03:18:33.520Z,20.66
2018-06-03T03:19:33.510Z,20.69
2018-06-03T03:20:33.497Z,20.69
2018-06-03T03:21:33.486Z,20.66
2018-06-03T03:22:33.477Z,20.74
2018-06-03T03:23:33.460Z,20.69
2018-06-03T03:24:33.448Z,20.69
2018-06-03T03:25:33.439Z,20.66
2018-06-03T03:26:33.422Z,20.62
2018-06-03T03:27:33.413Z,20.61
2018-06-03T03:28:33.406Z,20.66
2018-06-03T03:29:33.388Z,20.70
2018-06-03T03:30:33.376Z,20.69
2018-06-03T03:31:33.364Z,20.70
2018-06-03T03:32:33.352Z,20.64
2018-06-03T03:33:33.340Z,20.66
2018-06-03T03:34:33.326Z,20.72
2018-06-03T03:35:33.317Z,20.67
2018-06-03T03:36:33.305Z,20.70
2018-06-03T03:37:33.288Z,20.72
2018-06-03T03:38:33.277Z,20.72
2018-06-03T03:39:33.264Z,20.73
2018-06-03T03:40:33.257Z,20.67
2018-06-03T03:41:33.240Z,20.64
2018-06-03T03:42:33.229Z,20.69
2018-06-03T03:43:33.217Z,20.76
2018-06-03T03:44:33.205Z,20.62
2018-06-03T03:45:33.189Z,20.64
2018-06-03T03:46:33.178Z,20.61
2018-06-03T03:47:33.172Z,20.69
2018-06-03T03:48:33.166Z,20.74
2018-06-03T03:49:33.153Z,20.74
2018-06-03T03:50:33.133Z,20.76
2018-06-03T03:51:33.118Z,20.77
2018-06-03T03:52:33.114Z,20.80
2018-06-03T03:53:33.094Z,20.74
2018-06-03T03:54:33.081Z,20.80
2018-06-03T03:55:33.070Z,20.77
2018-06-03T03:56:33.057Z,20.77
2018-06-03T03:57:33.045Z,20.77
2018-06-03T03:58:33.031Z,20.85
2018-06-03T03:59:33.020Z,20.82
2018-06-03T04:00:33.007Z,20.89
2018-06-03T04:01:32.996Z,20.79
2018-06-03T04:02:32.984Z,20.80
2018-06-03T04:03:32.972Z,20.80
2018-06-03T04:04:32.957Z,20.79
2018-06-03T04:05:32.946Z,20.76
2018-06-03T04:06:32.936Z,20.73
2018-06-03T04:07:32.928Z,20.74
2018-06-03T04:08:32.911Z,20.77
2018-06-03T04:09:32.897Z,20.85
2018-06-03T04:10:32.882Z,20.79
2018-06-03T04:11:32.875Z,20.80
2018-06-03T04:12:32.861Z,20.76
2018-06-03T04:13:32.854Z,20.76
2018-06-03T04:14:32.837Z,20.77
2018-06-03T04:15:32.825Z,20.79
2018-06-03T04:16:32.812Z,20.79
2018-06-03T04:17:32.799Z,20.80
2018-06-03T04:18:32.787Z,20.80
2018-06-03T04:19:32.775Z,20.84
2018-06-03T04:20:32.768Z,20.88
2018-06-03T04:21:32.751Z,20.87
2018-06-03T04:22:32.739Z,20.97
2018-06-03T04:23:32.726Z,20.91
2018-06-03T04:24:32.718Z,20.99
2018-06-03T04:25:32.702Z,20.91
2018-06-03T04:26:32.692Z,20.95
2018-06-03T04:27:32.681Z,20.92
2018-06-03T04:28:32.668Z,20.92
2018-06-03T04:29:32.655Z,20.92
2018-06-03T04:30:32.641Z,20.94
2018-06-03T04:31:32.632Z,20.99
2018-06-03T04:32:32.619Z,21.01
2018-06-03T04:33:32.612Z,20.91
2018-06-03T04:34:32.595Z,20.95
2018-06-03T04:35:32.582Z,21.04
2018-06-03T04:36:32.573Z,21.04
2018-06-03T04:37:32.559Z,21.03
2018-06-03T04:38:32.547Z,20.98
2018-06-03T04:39:32.533Z,21.03
2018-06-03T04:40:32.521Z,20.99
2018-06-03T04:41:32.509Z,20.95
2018-06-03T04:42:32.497Z,21.01
2018-06-03T04:43:32.485Z,20.97
2018-06-03T04:44:32.476Z,20.94
2018-06-03T04:45:32.460Z,20.94
2018-06-03T04:46:32.449Z,20.99
2018-06-03T04:47:32.438Z,20.95
2018-06-03T04:48:32.430Z,20.97
2018-06-03T04:49:32.416Z,20.94
2018-06-03T04:50:32.402Z,20.91
2018-06-03T04:51:32.394Z,20.89
2018-06-03T04:52:32.382Z,20.94
2018-06-03T04:53:32.365Z,20.97
2018-06-03T04:54:32.356Z,20.91
2018-06-03T04:55:32.345Z,20.99
2018-06-03T04:56:32.328Z,20.95
2018-06-03T04:57:32.317Z,20.97
2018-06-03T04:58:32.305Z,20.95
2018-06-03T04:59:32.294Z,20.99
2018-06-03T05:00:32.281Z,20.98
2018-06-03T05:01:32.269Z,20.95
2018-06-03T05:02:32.257Z,20.91
2018-06-03T05:03:32.246Z,20.97
2018-06-03T05:04:32.235Z,20.95
2018-06-03T05:05:32.221Z,20.98
2018-06-03T05:06:32.216Z,21.03
2018-06-03T05:07:32.199Z,20.95
2018-06-03T05:08:32.185Z,21.04
2018-06-03T05:09:32.173Z,20.99
2018-06-03T05:10:32.162Z,20.99
2018-06-03T05:11:32.148Z,21.10
2018-06-03T05:12:32.136Z,21.07
2018-06-03T05:13:32.123Z,21.06
2018-06-03T05:14:32.112Z,21.14
2018-06-03T05:15:32.105Z,21.12
2018-06-03T05:16:32.090Z,21.12
2018-06-03T05:17:32.084Z,21.21
2018-06-03T05:18:32.065Z,21.10
2018-06-03T05:19:32.052Z,21.13
2018-06-03T05:20:32.041Z,21.25
2018-06-03T05:21:32.033Z,21.25
2018-06-03T05:22:32.019Z,21.28
2018-06-03T05:23:32.006Z,21.31
2018-06-03T05:24:31.993Z,21.29
2018-06-03T05:25:31.982Z,21.34
2018-06-03T05:26:31.969Z,21.28
2018-06-03T05:27:31.957Z,21.27
2018-06-03T05:28:31.948Z,21.35
2018-06-03T05:29:31.934Z,21.46
2018-06-03T05:30:31.936Z,21.46
2018-06-03T05:31:31.912Z,21.50
2018-06-03T05:32:31.903Z,21.52
2018-06-03T05:33:31.895Z,21.59
2018-06-03T05:34:31.876Z,21.59
2018-06-03T05:35:31.876Z,21.61
2018-06-03T05:36:31.852Z,21.64
2018-06-03T05:37:31.842Z,21.72
2018-06-03T05:38:31.830Z,21.80
2018-06-03T05:39:31.818Z,21.79
2018-06-03T05:40:31.810Z,21.83
2018-06-03T05:41:31.798Z,21.84
2018-06-03T05:42:31.791Z,21.92
2018-06-03T05:43:31.775Z,22.02
2018-06-03T05:44:31.761Z,22.06
2018-06-03T05:45:31.750Z,22.07
2018-06-03T05:46:31.738Z,22.03
2018-06-03T05:47:31.726Z,22.24
2018-06-03T05:48:31.715Z,22.21
2018-06-03T05:49:31.703Z,22.14
2018-06-03T05:50:31.692Z,22.25
2018-06-03T05:51:31.681Z,22.20
2018-06-03T05:52:31.672Z,22.28
2018-06-03T05:53:31.667Z,22.31
2018-06-03T05:54:31.646Z,22.35
2018-06-03T05:55:31.635Z,22.30
2018-06-03T05:56:31.625Z,22.33
2018-06-03T05:57:31.613Z,22.40
2018-06-03T05:58:31.603Z,22.37
2018-06-03T05:59:31.593Z,22.35
2018-06-03T06:00:31.584Z,22.42
2018-06-03T06:01:31.567Z,22.45
2018-06-03T06:02:31.576Z,22.45
2018-06-03T06:03:31.547Z,22.46
2018-06-03T06:04:31.539Z,22.47
2018-06-03T06:05:31.529Z,22.47
2018-06-03T06:06:31.525Z,22.45
2018-06-03T06:07:31.504Z,22.40
2018-06-03T06:08:31.492Z,22.39
2018-06-03T06:09:31.481Z,22.46
2018-06-03T06:10:31.469Z,22.37
2018-06-03T06:11:31.459Z,22.36
2018-06-03T06:12:31.446Z,22.36
2018-06-03T06:13:31.435Z,22.30
2018-06-03T06:14:31.423Z,22.36
2018-06-03T06:15:31.415Z,22.30
2018-06-03T06:16:31.411Z,22.33
2018-06-03T06:17:31.393Z,22.25
2018-06-03T06:18:31.385Z,22.27
2018-06-03T06:19:31.372Z,22.22
2018-06-03T06:20:31.361Z,22.20
2018-06-03T06:21:31.348Z,22.15
2018-06-03T06:22:31.338Z,22.17
2018-06-03T06:23:31.326Z,22.06
2018-06-03T06:24:31.318Z,22.07
2018-06-03T06:25:31.305Z,22.03
2018-06-03T06:26:31.298Z,22.14
2018-06-03T06:27:31.284Z,22.09
2018-06-03T06:28:31.273Z,22.05
2018-06-03T06:29:31.281Z,22.05
2018-06-03T06:30:31.247Z,21.98
2018-06-03T06:31:31.235Z,21.96
2018-06-03T06:32:31.224Z,21.96
2018-06-03T06:33:31.222Z,21.94
2018-06-03T06:34:31.202Z,21.96
2018-06-03T06:35:31.192Z,21.91
2018-06-03T06:36:31.181Z,21.84
2018-06-03T06:37:31.169Z,21.92
2018-06-03T06:38:31.160Z,21.96
2018-06-03T06:39:31.149Z,21.88
2018-06-03T06:40:31.139Z,21.92
2018-06-03T06:41:31.126Z,21.94
2018-06-03T06:42:31.114Z,21.92
2018-06-03T06:43:31.106Z,21.88
2018-06-03T06:44:31.092Z,21.83
2018-06-03T06:45:31.087Z,21.90
2018-06-03T06:46:31.073Z,21.92
2018-06-03T06:47:31.061Z,21.92
2018-06-03T06:48:31.055Z,21.88
2018-06-03T06:49:31.040Z,21.96
2018-06-03T06:50:31.027Z,21.88
2018-06-03T06:51:31.027Z,21.98
2018-06-03T06:52:31.005Z,21.99
2018-06-03T06:53:30.999Z,21.99
2018-06-03T06:54:30.985Z,21.86
2018-06-03T06:55:30.973Z,21.98
2018-06-03T06:56:30.969Z,22.05
2018-06-03T06:57:30.952Z,22.07
2018-06-03T06:58:30.943Z,22.06
2018-06-03T06:59:30.931Z,22.10
2018-06-03T07:00:30.918Z,22.14
2018-06-03T07:01:30.908Z,22.25
2018-06-03T07:02:30.899Z,22.15
2018-06-03T07:03:30.886Z,22.22
2018-06-03T07:04:30.878Z,22.18
2018-06-03T07:05:30.863Z,22.21
2018-06-03T07:06:30.874Z,22.30
2018-06-03T07:07:30.842Z,22.39
2018-06-03T07:08:30.831Z,22.35
2018-06-03T07:09:30.822Z,22.46
2018-06-03T07:10:30.818Z,22.46
2018-06-03T07:11:30.808Z,22.54
2018-06-03T07:12:30.790Z,22.54
2018-06-03T07:13:30.831Z,22.57
2018-06-03T07:14:30.815Z,22.54
2018-06-03T07:15:30.757Z,22.61
2018-06-03T07:16:30.749Z,22.46
2018-06-03T07:17:30.735Z,22.60
2018-06-03T07:18:30.727Z,22.60
2018-06-03T07:19:30.714Z,22.57
2018-06-03T07:20:30.708Z,22.52
2018-06-03T07:21:30.692Z,22.54
2018-06-03T07:22:30.685Z,22.54
2018-06-03T07:23:30.677Z,22.62
2018-06-03T07:24:30.666Z,22.61
2018-06-03T07:25:30.652Z,22.49
2018-06-03T07:26:30.648Z,22.51
2018-06-03T07:27:30.634Z,22.51
2018-06-03T07:28:30.625Z,22.46
2018-06-03T07:29:30.610Z,22.57
2018-06-03T07:30:30.600Z,22.60
2018-06-03T07:31:30.588Z,22.57
2018-06-03T07:32:30.584Z,22.57
2018-06-03T07:33:30.565Z,22.49
2018-06-03T07:34:30.562Z,22.62
2018-06-03T07:35:30.546Z,22.57
2018-06-03T07:36:30.554Z,22.68
2018-06-03T07:37:30.527Z,22.60
2018-06-03T07:38:30.516Z,22.58
2018-06-03T07:39:30.514Z,22.55
2018-06-03T07:40:30.502Z,22.46
2018-06-03T07:41:30.489Z,22.52
2018-06-03T07:42:30.475Z,22.51
2018-06-03T07:43:30.517Z,22.52
2018-06-03T07:44:30.464Z,22.46
2018-06-03T07:45:30.449Z,22.43
2018-06-03T07:46:30.432Z,22.47
2018-06-03T07:47:30.424Z,22.43
2018-06-03T07:48:30.409Z,22.39
2018-06-03T07:49:30.402Z,22.37
2018-06-03T07:50:30.390Z,22.37
2018-06-03T07:51:30.387Z,22.25
2018-06-03T07:52:30.378Z,22.24
2018-06-03T07:53:30.357Z,22.37
2018-06-03T07:54:30.351Z,22.25
2018-06-03T07:55:30.336Z,22.36
2018-06-03T07:56:30.330Z,22.31
2018-06-03T07:57:30.312Z,22.42
2018-06-03T07:58:30.302Z,22.39
2018-06-03T07:59:30.290Z,22.35
2018-06-03T08:00:30.279Z,22.45
2018-06-03T08:01:30.267Z,22.47
2018-06-03T08:02:30.259Z,22.43
2018-06-03T08:03:30.248Z,22.51
2018-06-03T08:04:30.235Z,22.61
2018-06-03T08:05:30.222Z,22.61
2018-06-03T08:06:30.213Z,22.60
2018-06-03T08:07:30.200Z,22.60
2018-06-03T08:08:30.193Z,22.55
2018-06-03T08:09:30.181Z,22.57
2018-06-03T08:10:30.173Z,22.51
2018-06-03T08:11:30.167Z,22.51
2018-06-03T08:12:30.151Z,22.51
2018-06-03T08:13:30.144Z,22.45
2018-06-03T08:14:30.129Z,22.52
2018-06-03T08:15:30.133Z,22.45
2018-06-03T08:16:30.107Z,22.57
2018-06-03T08:17:30.096Z,22.51
2018-06-03T08:18:30.084Z,22.51
2018-06-03T08:19:30.077Z,22.54
2018-06-03T08:20:30.064Z,22.57
2018-06-03T08:21:30.052Z,22.54
2018-06-03T08:22:30.046Z,22.62
2018-06-03T08:23:30.033Z,22.64
2018-06-03T08:24:30.030Z,22.79
2018-06-03T08:25:30.013Z,22.83
2018-06-03T08:26:30.001Z,22.94
2018-06-03T08:27:29.990Z,23.01
2018-06-03T08:28:29.980Z,23.22
2018-06-03T08:29:29.968Z,23.39
2018-06-03T08:30:29.957Z,23.46
2018-06-03T08:31:29.951Z,23.58
2018-06-03T08:32:29.937Z,23.63
2018-06-03T08:33:29.926Z,23.66
2018-06-03T08:34:29.920Z,23.69
2018-06-03T08:35:29.905Z,23.65
2018-06-03T08:36:29.897Z,23.66
2018-06-03T08:37:29.886Z,23.55
2018-06-03T08:38:29.884Z,23.48
2018-06-03T08:39:29.865Z,23.58
2018-06-03T08:40:29.856Z,23.47
2018-06-03T08:41:29.852Z,23.40
2018-06-03T08:42:29.839Z,23.54
2018-06-03T08:43:29.825Z,23.43
2018-06-03T08:44:29.816Z,23.48
2018-06-03T08:45:29.805Z,23.38
2018-06-03T08:46:29.797Z,23.50
2018-06-03T08:47:29.787Z,23.35
2018-06-03T08:48:29.780Z,23.35
2018-06-03T08:49:29.764Z,23.28
2018-06-03T08:50:29.754Z,23.27
2018-06-03T08:51:29.757Z,23.17
2018-06-03T08:52:29.735Z,23.25
2018-06-03T08:53:29.726Z,23.27
2018-06-03T08:54:29.725Z,23.25
2018-06-03T08:55:29.707Z,23.25
2018-06-03T08:56:29.701Z,23.35
2018-06-03T08:57:29.685Z,23.39
2018-06-03T08:58:29.685Z,23.39
2018-06-03T08:59:29.665Z,23.40
2018-06-03T09:00:29.683Z,23.32
2018-06-03T09:01:29.644Z,23.33
2018-06-03T09:02:29.637Z,23.33
2018-06-03T09:03:29.627Z,23.36
2018-06-03T09:04:29.614Z,23.39
2018-06-03T09:05:29.605Z,23.40
2018-06-03T09:06:29.595Z,23.42
2018-06-03T09:07:29.591Z,23.42
2018-06-03T09:08:29.576Z,23.42
2018-06-03T09:09:29.563Z,23.38
2018-06-03T09:10:29.555Z,23.46
2018-06-03T09:11:29.549Z,23.51
2018-06-03T09:12:29.537Z,23.39
2018-06-03T09:13:29.525Z,23.38
2018-06-03T09:14:29.525Z,23.35
2018-06-03T09:15:29.505Z,23.42
2018-06-03T09:16:29.497Z,23.38
2018-06-03T09:17:29.489Z,23.33
2018-06-03T09:18:29.480Z,23.32
2018-06-03T09:19:29.474Z,23.28
2018-06-03T09:20:29.458Z,23.17
2018-06-03T09:21:29.448Z,23.15
2018-06-03T09:22:29.448Z,23.07
2018-06-03T09:23:29.429Z,23.01
2018-06-03T09:24:29.418Z,23.10
2018-06-03T09:25:29.413Z,23.07
2018-06-03T09:26:29.402Z,22.95
2018-06-03T09:27:29.392Z,22.90
2018-06-03T09:28:29.381Z,22.77
2018-06-03T09:29:29.367Z,22.82
2018-06-03T09:30:29.357Z,22.72
2018-06-03T09:31:29.350Z,22.77
2018-06-03T09:32:29.337Z,22.65
2018-06-03T09:33:29.332Z,22.67
2018-06-03T09:34:29.318Z,22.70
2018-06-03T09:35:29.312Z,22.62
2018-06-03T09:36:29.302Z,22.65
2018-06-03T09:37:29.298Z,22.61
2018-06-03T09:38:29.276Z,22.55
2018-06-03T09:39:29.274Z,22.62
2018-06-03T09:40:29.260Z,22.65
2018-06-03T09:41:29.248Z,22.65
2018-06-03T09:42:29.238Z,22.73
2018-06-03T09:43:29.227Z,22.77
2018-06-03T09:44:29.228Z,22.83
2018-06-03T09:45:29.213Z,22.79
2018-06-03T09:46:29.196Z,22.98
2018-06-03T09:47:29.186Z,22.97
2018-06-03T09:48:29.177Z,23.05
2018-06-03T09:49:29.170Z,23.02
2018-06-03T09:50:29.157Z,23.15
2018-06-03T09:51:29.147Z,23.10
2018-06-03T09:52:29.135Z,23.19
2018-06-03T09:53:29.122Z,23.13
2018-06-03T09:54:29.116Z,23.12
2018-06-03T09:55:29.107Z,23.05
2018-06-03T09:56:29.093Z,23.05
2018-06-03T09:57:29.081Z,23.05
2018-06-03T09:58:29.084Z,23.10
2018-06-03T09:59:29.066Z,23.09
2018-06-03T10:00:29.114Z,23.17
2018-06-03T10:01:29.047Z,23.16
2018-06-03T10:02:29.040Z,23.15
2018-06-03T10:03:29.024Z,23.19
2018-06-03T10:04:29.014Z,23.17
2018-06-03T10:05:29.005Z,23.20
2018-06-03T10:06:28.995Z,23.22
2018-06-03T10:07:28.990Z,23.22
2018-06-03T10:08:28.977Z,23.25
2018-06-03T10:09:28.969Z,23.33
2018-06-03T10:10:28.958Z,23.16
2018-06-03T10:11:28.945Z,23.10
2018-06-03T10:12:28.933Z,23.12
2018-06-03T10:13:28.929Z,23.02
2018-06-03T10:14:28.918Z,23.07
2018-06-03T10:15:28.905Z,22.91
2018-06-03T10:16:28.924Z,22.90
2018-06-03T10:17:28.886Z,22.88
2018-06-03T10:18:28.875Z,22.82
2018-06-03T10:19:28.876Z,22.75
2018-06-03T10:20:28.856Z,22.68
2018-06-03T10:21:28.899Z,22.62
2018-06-03T10:22:28.854Z,22.52
2018-06-03T10:23:28.828Z,22.55
2018-06-03T10:24:28.816Z,22.47
2018-06-03T10:25:28.807Z,22.46
2018-06-03T10:26:28.795Z,22.49
2018-06-03T10:27:28.787Z,22.45
2018-06-03T10:28:28.779Z,22.36
2018-06-03T10:29:28.766Z,22.49
2018-06-03T10:30:28.758Z,22.31
2018-06-03T10:31:28.747Z,22.22
2018-06-03T10:32:28.736Z,22.25
2018-06-03T10:33:28.730Z,22.18
2018-06-03T10:34:28.715Z,22.28
2018-06-03T10:35:28.704Z,22.22
2018-06-03T10:36:28.696Z,22.20
2018-06-03T10:37:28.683Z,22.24
2018-06-03T10:38:28.674Z,22.21
2018-06-03T10:39:28.664Z,22.10
2018-06-03T10:40:28.652Z,22.09
2018-06-03T10:41:28.641Z,22.14
2018-06-03T10:42:28.640Z,22.05
2018-06-03T10:43:28.626Z,22.10
2018-06-03T10:44:28.614Z,22.07
2018-06-03T10:45:28.601Z,22.27
2018-06-03T10:46:28.590Z,22.37
2018-06-03T10:47:28.579Z,22.46
2018-06-03T10:48:28.569Z,22.60
2018-06-03T10:49:28.559Z,22.72
2018-06-03T10:50:28.554Z,22.95
2018-06-03T10:51:28.539Z,23.04
2018-06-03T10:52:28.529Z,23.25
2018-06-03T10:53:28.521Z,23.40
2018-06-03T10:54:28.581Z,23.54
2018-06-03T10:55:28.502Z,23.66
2018-06-03T10:56:28.488Z,23.72
2018-06-03T10:57:28.488Z,23.87
2018-06-03T10:58:28.477Z,23.94
2018-06-03T10:59:28.459Z,23.85
2018-06-03T11:00:28.450Z,23.87
2018-06-03T11:01:28.443Z,23.83
2018-06-03T11:02:28.429Z,23.91
2018-06-03T11:03:28.423Z,23.91
2018-06-03T11:04:28.419Z,23.91
2018-06-03T11:05:28.424Z,23.90
2018-06-03T11:06:28.391Z,23.87
2018-06-03T11:07:28.385Z,23.85
2018-06-03T11:08:28.377Z,23.98
2018-06-03T11:09:28.364Z,23.93
2018-06-03T11:10:28.361Z,23.87
2018-06-03T11:11:28.349Z,23.87
2018-06-03T11:12:28.336Z,23.87
2018-06-03T11:13:28.327Z,23.84
2018-06-03T11:14:28.318Z,23.79
2018-06-03T11:15:28.310Z,23.78
2018-06-03T11:16:28.297Z,23.85
2018-06-03T11:17:28.290Z,23.79
2018-06-03T11:18:28.279Z,23.83
2018-06-03T11:19:28.281Z,23.83
2018-06-03T11:20:28.261Z,23.75
2018-06-03T11:21:28.250Z,23.70
2018-06-03T11:22:28.242Z,23.79
2018-06-03T11:23:28.232Z,23.75
2018-06-03T11:24:28.225Z,23.83
2018-06-03T11:25:28.214Z,23.75
2018-06-03T11:26:28.203Z,23.66
2018-06-03T11:27:28.221Z,23.75
2018-06-03T11:28:28.185Z,23.73
2018-06-03T11:29:28.174Z,23.73
2018-06-03T11:30:28.171Z,23.54
2018-06-03T11:31:28.161Z,23.48
2018-06-03T11:32:28.147Z,23.54
2018-06-03T11:33:28.150Z,23.53
2018-06-03T11:34:28.129Z,23.46
2018-06-03T11:35:28.127Z,23.50
2018-06-03T11:36:28.110Z,23.51
2018-06-03T11:37:28.100Z,23.48
2018-06-03T11:38:28.099Z,23.33
2018-06-03T11:39:28.085Z,23.40
2018-06-03T11:40:28.074Z,23.39
2018-06-03T11:41:28.062Z,23.54
2018-06-03T11:42:28.063Z,23.43
2018-06-03T11:43:28.044Z,23.43
2018-06-03T11:44:28.038Z,23.47
2018-06-03T11:45:28.022Z,23.48
2018-06-03T11:46:28.018Z,23.51
2018-06-03T11:47:28.002Z,23.46
2018-06-03T11:48:28.009Z,23.43
2018-06-03T11:49:27.985Z,23.40
2018-06-03T11:50:27.975Z,23.48
2018-06-03T11:51:27.969Z,23.39
2018-06-03T11:52:27.954Z,23.39
2018-06-03T11:53:27.944Z,23.35
2018-06-03T11:54:27.935Z,23.33
2018-06-03T11:55:27.927Z,23.31
2018-06-03T11:56:27.915Z,23.36
2018-06-03T11:57:27.904Z,23.27
2018-06-03T11:58:27.898Z,23.38
2018-06-03T11:59:27.886Z,23.35
2018-06-03T12:00:27.877Z,23.35
2018-06-03T12:01:27.901Z,23.43
2018-06-03T12:02:27.855Z,23.47
2018-06-03T12:03:27.856Z,23.50
2018-06-03T12:04:27.837Z,23.47
2018-06-03T12:05:27.826Z,23.47
2018-06-03T12:06:27.818Z,23.40
2018-06-03T12:07:27.807Z,23.50
2018-06-03T12:08:27.797Z,23.70
2018-06-03T12:09:27.788Z,24.03
2018-06-03T12:10:27.778Z,24.09
2018-06-03T12:11:27.769Z,24.34
2018-06-03T12:12:27.760Z,24.45
2018-06-03T12:13:27.749Z,24.45
2018-06-03T12:14:27.743Z,24.47
2018-06-03T12:15:27.770Z,24.49
2018-06-03T12:16:27.722Z,24.50
2018-06-03T12:17:27.713Z,24.55
2018-06-03T12:18:27.703Z,24.58
2018-06-03T12:19:27.693Z,24.58
2018-06-03T12:20:27.690Z,24.58
2018-06-03T12:21:27.676Z,24.49
2018-06-03T12:22:27.667Z,24.52
2018-06-03T12:23:27.658Z,24.49
2018-06-03T12:24:27.648Z,24.45
2018-06-03T12:25:27.644Z,24.31
2018-06-03T12:26:27.637Z,24.34
2018-06-03T12:27:27.621Z,24.35
2018-06-03T12:28:27.634Z,24.35
2018-06-03T12:29:27.602Z,24.30
2018-06-03T12:30:27.593Z,24.32
2018-06-03T12:31:27.585Z,24.31
2018-06-03T12:32:27.576Z,24.28
2018-06-03T12:33:27.569Z,24.27
2018-06-03T12:34:27.559Z,24.37
2018-06-03T12:35:27.553Z,24.25
2018-06-03T12:36:27.539Z,24.31
2018-06-03T12:37:27.530Z,24.27
2018-06-03T12:38:27.521Z,24.20
2018-06-03T12:39:27.513Z,24.18
2018-06-03T12:40:27.508Z,24.10
2018-06-03T12:41:27.493Z,24.22
2018-06-03T12:42:27.484Z,24.10
2018-06-03T12:43:27.474Z,24.27
2018-06-03T12:44:27.467Z,24.25
2018-06-03T12:45:27.455Z,24.28
2018-06-03T12:46:27.447Z,24.30
2018-06-03T12:47:27.490Z,24.32
2018-06-03T12:48:27.435Z,24.34
2018-06-03T12:49:27.420Z,24.46
2018-06-03T12:50:27.412Z,24.49
2018-06-03T12:51:27.403Z,24.52
2018-06-03T12:52:27.392Z,24.47